createdAt,value
2019-01-21T00:04:05.114Z,27.00
2019-01-21T00:09:08.776Z,26.63
2019-01-21T00:14:12.205Z,30.70
2019-01-21T00:19:15.642Z,32.13
2019-01-21T00:24:19.242Z,30.80
2019-01-21T00:29:22.672Z,27.60
2019-01-21T00:34:26.103Z,28.27
2019-01-21T00:39:29.607Z,28.13
2019-01-21T00:44:33.194Z,24.70
2019-01-21T00:49:36.631Z,21.03
2019-01-21T00:54:40.068Z,24.70
2019-01-21T00:59:43.512Z,26.07
2019-01-21T01:04:46.966Z,29.93
2019-01-21T01:09:50.405Z,26.90
2019-01-21T01:14:53.837Z,25.37
2019-01-21T01:19:57.279Z,23.63
2019-01-21T01:25:01.032Z,26.27
2019-01-21T01:30:07.984Z,24.63
2019-01-21T01:35:13.239Z,27.03
2019-01-21T01:40:17.804Z,24.27
2019-01-21T01:45:22.967Z,26.77
2019-01-21T01:50:26.771Z,19.50
2019-01-21T01:55:30.341Z,27.40
2019-01-21T02:00:34.472Z,24.27
2019-01-21T02:05:37.929Z,24.27
2019-01-21T02:10:41.384Z,22.03
2019-01-21T02:15:44.822Z,25.13
2019-01-21T02:20:50.642Z,27.40
2019-01-21T02:25:54.132Z,26.10
2019-01-21T02:31:18.505Z,25.87
2019-01-21T02:36:36.593Z,24.23
2019-01-21T02:41:41.074Z,22.57
2019-01-21T02:46:53.354Z,23.10
2019-01-21T02:52:22.342Z,24.33
2019-01-21T02:57:51.240Z,25.93
2019-01-21T03:03:01.049Z,29.60
2019-01-21T03:08:16.477Z,25.67
2019-01-21T03:13:25.840Z,24.33
2019-01-21T03:18:38.133Z,24.10
2019-01-21T03:23:50.429Z,28.73
2019-01-21T03:29:22.447Z,25.67
2019-01-21T03:34:40.892Z,25.87
2019-01-21T03:39:56.238Z,25.17
2019-01-21T03:45:31.241Z,28.60
2019-01-21T03:50:37.754Z,28.03
2019-01-21T03:55:41.315Z,25.67
2019-01-21T04:00:51.017Z,25.37
2019-01-21T04:06:06.369Z,28.87
2019-01-21T04:11:18.364Z,31.87
2019-01-21T04:16:47.305Z,25.80
2019-01-21T04:22:26.592Z,29.30
2019-01-21T04:27:44.713Z,31.73
2019-01-21T04:32:56.725Z,25.07
2019-01-21T04:38:22.520Z,24.03
2019-01-21T04:43:31.670Z,25.73
2019-01-21T04:49:03.562Z,24.50
2019-01-21T04:54:15.747Z,27.77
2019-01-21T04:59:41.479Z,29.20
2019-01-21T05:05:02.798Z,30.63
2019-01-21T05:10:12.203Z,26.63
2019-01-21T05:15:21.188Z,29.90
2019-01-21T05:20:27.669Z,29.07
2019-01-21T05:25:36.915Z,29.40
2019-01-21T05:30:49.086Z,30.83
2019-01-21T05:36:20.764Z,28.43
2019-01-21T05:41:35.421Z,27.30
2019-01-21T05:47:14.992Z,28.97
2019-01-21T05:52:37.824Z,31.90
2019-01-21T05:58:03.731Z,31.60
2019-01-21T06:03:35.705Z,30.53
2019-01-21T06:08:47.866Z,33.00
2019-01-21T06:14:06.090Z,33.57
2019-01-21T06:19:12.562Z,28.27
2019-01-21T06:24:24.971Z,30.03
2019-01-21T06:29:34.129Z,31.27
2019-01-21T06:34:43.335Z,35.07
2019-01-21T06:39:58.421Z,33.03
2019-01-21T06:45:25.923Z,33.90
2019-01-21T06:50:38.168Z,45.30
2019-01-21T06:55:56.252Z,37.10
2019-01-21T07:01:36.893Z,34.97
2019-01-21T07:07:11.693Z,39.43
2019-01-21T07:12:39.037Z,36.47
2019-01-21T07:17:54.460Z,31.77
2019-01-21T07:23:15.656Z,35.07
2019-01-21T07:28:41.316Z,30.80
2019-01-21T07:33:56.287Z,35.50
2019-01-21T07:39:24.887Z,41.07
2019-01-21T07:44:43.150Z,37.10
2019-01-21T07:50:10.135Z,38.10
2019-01-21T07:55:16.621Z,37.30
2019-01-21T08:00:42.535Z,39.93
2019-01-21T08:06:03.118Z,36.87
2019-01-21T08:11:23.969Z,55.00
2019-01-21T08:16:33.118Z,51.13
2019-01-21T08:22:06.333Z,44.13
2019-01-21T08:27:15.475Z,43.33
2019-01-21T08:32:24.870Z,38.63
2019-01-21T08:37:37.265Z,40.03
2019-01-21T08:43:01.594Z,46.87
2019-01-21T08:48:08.075Z,40.97
2019-01-21T08:53:29.206Z,45.53
2019-01-21T08:58:53.423Z,48.30
2019-01-21T09:04:02.813Z,50.83
2019-01-21T09:09:24.151Z,44.20
2019-01-21T09:14:30.634Z,50.50
2019-01-21T09:19:45.837Z,46.33
2019-01-21T09:25:03.956Z,53.60
2019-01-21T09:30:13.351Z,55.33
2019-01-21T09:35:31.485Z,47.67
2019-01-21T09:40:49.599Z,44.90
2019-01-21T09:45:58.735Z,47.73
2019-01-21T09:51:04.672Z,49.83
2019-01-21T09:56:08.188Z,48.57
2019-01-21T10:01:11.922Z,49.03
2019-01-21T10:06:16.484Z,45.33
2019-01-21T10:11:37.696Z,43.20
2019-01-21T10:16:46.839Z,50.07
2019-01-21T10:22:13.852Z,40.47
2019-01-21T10:27:53.409Z,44.53
2019-01-21T10:33:17.037Z,42.03
2019-01-21T10:38:26.158Z,42.70
2019-01-21T10:43:35.087Z,41.97
2019-01-21T10:48:53.558Z,45.93
2019-01-21T10:54:02.729Z,44.30
2019-01-21T10:59:09.205Z,43.53
2019-01-21T11:04:36.546Z,41.07
2019-01-21T11:09:45.771Z,43.53
2019-01-21T11:14:58.001Z,51.63
2019-01-21T11:20:10.361Z,44.27
2019-01-21T11:25:42.310Z,42.00
2019-01-21T11:31:00.679Z,43.30
2019-01-21T11:36:39.598Z,44.60
2019-01-21T11:42:00.294Z,42.83
2019-01-21T11:47:06.769Z,42.70
2019-01-21T11:52:24.987Z,44.60
2019-01-21T11:57:34.239Z,43.50
2019-01-21T12:02:43.806Z,42.40
2019-01-21T12:08:04.951Z,35.87
2019-01-21T12:13:34.558Z,38.70
2019-01-21T12:18:49.994Z,39.17
2019-01-21T12:24:02.179Z,42.67
2019-01-21T12:29:14.206Z,37.03
2019-01-21T12:34:39.945Z,40.60
2019-01-21T12:40:01.027Z,37.07
2019-01-21T12:45:16.298Z,39.93
2019-01-21T12:50:52.188Z,34.97
2019-01-21T12:56:31.805Z,31.97
2019-01-21T13:01:44.233Z,38.13
2019-01-21T13:06:59.507Z,35.03
2019-01-21T13:12:08.667Z,29.83
2019-01-21T13:17:17.911Z,31.47
2019-01-21T13:22:33.316Z,35.83
2019-01-21T13:28:03.556Z,36.30
2019-01-21T13:33:24.421Z,30.70
2019-01-21T13:38:36.506Z,28.37
2019-01-21T13:43:43.052Z,31.00
2019-01-21T13:48:49.538Z,27.87
2019-01-21T13:54:13.677Z,27.47
2019-01-21T13:59:42.310Z,30.80
2019-01-21T14:04:54.917Z,31.77
2019-01-21T14:10:10.235Z,32.93
2019-01-21T14:15:25.235Z,32.70
2019-01-21T14:20:31.768Z,32.80
2019-01-21T14:25:42.011Z,33.10
2019-01-21T14:30:57.531Z,33.30
2019-01-21T14:36:25.037Z,30.97
2019-01-21T14:41:34.174Z,35.07
2019-01-21T14:47:01.093Z,33.80
2019-01-21T14:52:24.089Z,30.13
2019-01-21T14:57:36.395Z,35.23
2019-01-21T15:02:59.073Z,30.83
2019-01-21T15:08:05.563Z,31.33
2019-01-21T15:13:11.996Z,33.90
2019-01-21T15:18:36.385Z,30.63
2019-01-21T15:23:45.982Z,31.27
2019-01-21T15:28:55.063Z,30.70
2019-01-21T15:34:01.674Z,36.40
2019-01-21T15:39:10.750Z,38.20
2019-01-21T15:44:17.299Z,38.33
2019-01-21T15:49:23.760Z,34.57
2019-01-21T15:54:52.450Z,33.53
2019-01-21T16:00:17.054Z,32.50
2019-01-21T16:05:29.613Z,36.43
2019-01-21T16:10:55.665Z,37.27
2019-01-21T16:16:14.003Z,39.57
2019-01-21T16:21:45.858Z,40.77
2019-01-21T16:27:00.966Z,36.23
2019-01-21T16:32:04.493Z,42.03
2019-01-21T16:37:20.031Z,45.50
2019-01-21T16:42:22.666Z,41.47
2019-01-21T16:47:26.643Z,35.33
2019-01-21T16:52:30.175Z,40.83
2019-01-21T16:57:33.621Z,38.53
2019-01-21T17:02:37.165Z,36.83
2019-01-21T17:07:40.736Z,34.10
2019-01-21T17:12:44.328Z,42.07
2019-01-21T17:17:47.776Z,41.33
2019-01-21T17:22:51.332Z,36.97
2019-01-21T17:27:54.762Z,37.47
2019-01-21T17:32:58.202Z,40.03
2019-01-21T17:38:01.668Z,39.13
2019-01-21T17:43:05.445Z,39.50
2019-01-21T17:48:08.907Z,38.03
2019-01-21T17:53:12.420Z,39.70
2019-01-21T17:58:16.091Z,40.13
2019-01-21T18:03:19.511Z,36.23
2019-01-21T18:08:22.952Z,40.83
2019-01-21T18:13:26.380Z,42.70
2019-01-21T18:18:29.891Z,34.50
2019-01-21T18:23:33.335Z,37.93
2019-01-21T18:28:36.805Z,35.70
2019-01-21T18:33:40.306Z,35.63
2019-01-21T18:38:43.879Z,34.53
2019-01-21T18:43:47.289Z,33.63
2019-01-21T18:48:51.550Z,37.93
2019-01-21T18:53:55.061Z,38.17
2019-01-21T18:58:58.652Z,32.83
2019-01-21T19:04:02.116Z,32.27
2019-01-21T19:09:07.597Z,40.37
2019-01-21T19:14:11.068Z,31.53
2019-01-21T19:19:14.509Z,36.13
2019-01-21T19:24:17.943Z,35.47
2019-01-21T19:29:21.366Z,31.23
2019-01-21T19:34:24.806Z,33.30
2019-01-21T19:39:28.243Z,33.50
2019-01-21T19:44:32.570Z,32.53
2019-01-21T19:49:35.997Z,37.30
2019-01-21T19:54:39.436Z,36.13
2019-01-21T19:59:42.913Z,31.03
2019-01-21T20:04:46.352Z,35.83
2019-01-21T20:09:49.775Z,33.83
2019-01-21T20:14:53.308Z,32.27
2019-01-21T20:19:56.742Z,32.20
2019-01-21T20:25:00.231Z,38.27
2019-01-21T20:30:05.547Z,38.57
2019-01-21T20:35:09.126Z,35.03
2019-01-21T20:40:18.701Z,44.90
2019-01-21T20:45:23.274Z,55.87
2019-01-21T20:50:31.594Z,46.63
2019-01-21T20:55:35.032Z,43.17
2019-01-21T21:00:38.477Z,42.87
2019-01-21T21:05:41.970Z,42.87
2019-01-21T21:10:45.475Z,43.13
2019-01-21T21:15:48.899Z,43.97
2019-01-21T21:20:52.335Z,40.47
2019-01-21T21:25:55.766Z,40.70
2019-01-21T21:30:59.206Z,45.33
2019-01-21T21:36:02.646Z,41.93
2019-01-21T21:41:06.066Z,43.07
2019-01-21T21:46:09.496Z,49.70
2019-01-21T21:51:12.920Z,53.10
2019-01-21T21:56:16.350Z,48.90
2019-01-21T22:01:23.929Z,49.50
2019-01-21T22:06:24.948Z,46.67
2019-01-21T22:11:28.370Z,46.43
2019-01-21T22:16:32.178Z,41.33
2019-01-21T22:21:35.617Z,44.00
2019-01-21T22:26:39.036Z,46.57
2019-01-21T22:31:42.479Z,41.83
2019-01-21T22:36:45.914Z,45.73
2019-01-21T22:41:49.352Z,45.37
2019-01-21T22:46:52.872Z,50.93
2019-01-21T22:51:56.291Z,55.00
2019-01-21T22:56:59.787Z,51.73
2019-01-21T23:02:03.333Z,52.10
2019-01-21T23:07:06.903Z,51.77
2019-01-21T23:12:10.321Z,51.50
2019-01-21T23:17:13.779Z,50.30
2019-01-21T23:22:17.391Z,52.27
2019-01-21T23:27:20.813Z,44.77
2019-01-21T23:32:24.271Z,47.57
2019-01-21T23:37:27.702Z,43.53
2019-01-21T23:42:31.141Z,41.37
2019-01-21T23:47:34.634Z,42.27
2019-01-21T23:52:38.067Z,53.77
2019-01-21T23:57:41.509Z,44.43
